Time;durP1;ratioP1;P1;durP2;ratioP2;P2;SDS_P1;SDS_P2;PMS_P1;PMS_P2;Temp;Humidity;BMP_temperature;BMP_pressure;BME280_temperature;BME280_humidity;BME280_pressure;Samples;Min_cycle;Max_cycle;Signal;HPM_P1;HPM_P2
2021/01/12 00:00:31;;;;;;;59.73;29.03;;;-1.40;99.90;;;;;;5048657;28;20211;-73
2021/01/12 00:02:59;;;;;;;57.00;28.53;;;-1.40;99.90;;;;;;5045423;28;20240;-73
2021/01/12 00:05:25;;;;;;;58.17;28.40;;;-1.30;99.90;;;;;;5031628;28;20234;-74
2021/01/12 00:07:52;;;;;;;58.17;28.20;;;-1.30;99.90;;;;;;5043211;28;20213;-74
2021/01/12 00:10:20;;;;;;;57.03;27.50;;;-1.30;99.90;;;;;;5041640;28;20677;-75
2021/01/12 00:12:48;;;;;;;50.70;26.07;;;-1.30;99.90;;;;;;5050426;28;20642;-76
2021/01/12 00:15:17;;;;;;;51.70;27.37;;;-1.30;99.90;;;;;;5043082;28;20644;-74
2021/01/12 00:17:43;;;;;;;55.77;27.73;;;-1.40;99.90;;;;;;5052426;28;20232;-76
2021/01/12 00:20:12;;;;;;;57.23;27.93;;;-1.30;99.90;;;;;;5039730;28;20670;-75
2021/01/12 00:22:39;;;;;;;53.70;27.67;;;-1.30;99.90;;;;;;5050432;28;20678;-75
2021/01/12 00:25:07;;;;;;;62.37;29.17;;;-1.30;99.90;;;;;;5046347;28;20214;-76
2021/01/12 00:27:34;;;;;;;51.30;26.40;;;-1.40;99.90;;;;;;5042553;28;20230;-75
2021/01/12 00:30:01;;;;;;;53.13;26.57;;;-1.40;99.90;;;;;;5049681;28;20736;-75
2021/01/12 00:32:27;;;;;;;60.53;27.60;;;-1.40;99.90;;;;;;5040203;28;20271;-75
2021/01/12 00:34:55;;;;;;;50.10;26.13;;;-1.40;99.90;;;;;;5048069;28;20576;-75
2021/01/12 00:37:22;;;;;;;60.70;26.37;;;-1.40;99.90;;;;;;5046991;28;20244;-75
2021/01/12 00:39:49;;;;;;;54.23;27.63;;;-1.40;99.90;;;;;;5047156;28;20703;-75
2021/01/12 00:42:16;;;;;;;48.03;25.23;;;-1.40;99.90;;;;;;5048377;28;20210;-75
2021/01/12 00:44:42;;;;;;;59.57;27.03;;;-1.40;99.90;;;;;;5046018;28;20285;-75
2021/01/12 00:47:10;;;;;;;51.03;26.07;;;-1.40;99.90;;;;;;5050442;28;20222;-75
2021/01/12 00:49:37;;;;;;;48.27;27.30;;;-1.40;99.90;;;;;;5044684;28;20792;-76
2021/01/12 00:52:08;;;;;;;51.53;25.27;;;-1.40;99.90;;;;;;5048255;28;20335;-76
2021/01/12 00:54:34;;;;;;;50.07;25.87;;;-1.40;99.90;;;;;;5046529;28;20202;-75
2021/01/12 00:57:01;;;;;;;55.47;27.33;;;-1.40;99.90;;;;;;5044564;28;20635;-74
2021/01/12 00:59:28;;;;;;;48.23;25.83;;;-1.40;99.90;;;;;;5044561;28;20320;-75
2021/01/12 01:01:59;;;;;;;51.80;26.03;;;-1.40;99.90;;;;;;5048817;28;20297;-75
2021/01/12 01:04:27;;;;;;;54.57;26.23;;;-1.40;99.90;;;;;;5044806;28;20261;-74
2021/01/12 01:06:53;;;;;;;53.10;27.20;;;-1.50;99.90;;;;;;5046074;28;20706;-74
2021/01/12 01:09:20;;;;;;;47.40;25.80;;;-1.50;99.90;;;;;;5036883;28;20301;-75
2021/01/12 01:11:48;;;;;;;52.23;25.77;;;-1.50;99.90;;;;;;5042389;28;20280;-75
2021/01/12 01:14:15;;;;;;;44.63;24.00;;;-1.50;99.90;;;;;;5045323;28;20219;-74
2021/01/12 01:16:42;;;;;;;54.70;25.50;;;-1.50;99.90;;;;;;5046419;28;20217;-74
2021/01/12 01:19:09;;;;;;;52.57;26.37;;;-1.50;99.90;;;;;;5049760;28;20296;-74
2021/01/12 01:21:37;;;;;;;47.27;24.60;;;-1.60;99.90;;;;;;5046041;28;20285;-74
2021/01/12 01:24:03;;;;;;;50.03;25.83;;;-1.60;99.90;;;;;;5041430;28;20214;-76
2021/01/12 01:26:30;;;;;;;47.77;24.93;;;-1.60;99.90;;;;;;5051539;28;20313;-75
2021/01/12 01:28:57;;;;;;;48.87;25.63;;;-1.60;99.90;;;;;;5042508;28;20546;-74
2021/01/12 01:31:24;;;;;;;52.60;25.70;;;-1.70;99.90;;;;;;5041719;28;20201;-75
2021/01/12 01:33:50;;;;;;;47.50;24.87;;;-1.70;99.90;;;;;;5042425;28;20210;-76
2021/01/12 01:36:17;;;;;;;52.50;25.17;;;-1.70;99.90;;;;;;5048669;28;20206;-74
2021/01/12 01:38:44;;;;;;;51.07;24.60;;;-1.70;99.90;;;;;;5046344;28;20643;-74
2021/01/12 01:41:11;;;;;;;53.23;26.23;;;-1.70;99.90;;;;;;5042619;28;20721;-74
2021/01/12 01:43:38;;;;;;;47.83;23.63;;;-1.70;99.90;;;;;;5040170;28;20563;-74
2021/01/12 01:46:05;;;;;;;48.53;25.17;;;-1.70;99.90;;;;;;5042823;28;20317;-75
2021/01/12 01:48:32;;;;;;;47.40;24.67;;;-1.70;99.90;;;;;;5046557;28;20280;-74
2021/01/12 01:51:01;;;;;;;44.97;25.20;;;-1.70;99.90;;;;;;5045319;28;20227;-74
2021/01/12 01:53:27;;;;;;;44.70;24.43;;;-1.70;99.90;;;;;;5037273;28;20203;-76
2021/01/12 01:56:01;;;;;;;45.77;24.23;;;-1.80;99.90;;;;;;5042034;28;20232;-75
2021/01/12 01:58:29;;;;;;;55.40;26.10;;;-1.70;99.90;;;;;;5045520;28;20210;-75
2021/01/12 02:00:55;;;;;;;50.53;25.27;;;-1.80;99.90;;;;;;5044212;28;20268;-73
2021/01/12 02:03:26;;;;;;;51.97;26.77;;;-1.80;99.90;;;;;;5043170;28;20251;-72
2021/01/12 02:05:57;;;;;;;51.63;24.30;;;-1.80;99.90;;;;;;5047277;28;20222;-72
2021/01/12 02:08:26;;;;;;;45.87;24.63;;;-1.90;99.90;;;;;;5042284;28;20207;-72
2021/01/12 02:11:00;;;;;;;43.87;22.93;;;-1.80;99.90;;;;;;5047941;28;20237;-72
2021/01/12 02:13:29;;;;;;;47.30;23.90;;;-1.80;99.90;;;;;;5045474;28;20203;-73
2021/01/12 02:16:00;;;;;;;44.20;23.90;;;-1.80;99.90;;;;;;5043093;28;20206;-73
2021/01/12 02:18:32;;;;;;;50.47;24.93;;;-1.80;99.90;;;;;;5045241;28;20575;-73
2021/01/12 02:21:00;;;;;;;40.23;20.57;;;-1.80;99.90;;;;;;5037857;28;20210;-73
2021/01/12 02:23:32;;;;;;;49.50;24.17;;;-1.80;99.90;;;;;;5037868;28;20610;-73
2021/01/12 02:26:00;;;;;;;49.17;25.33;;;-1.80;99.90;;;;;;5043949;28;20222;-72
2021/01/12 02:28:26;;;;;;;40.93;22.63;;;-1.80;99.90;;;;;;5036602;28;20211;-72
2021/01/12 02:30:53;;;;;;;43.63;22.57;;;-1.80;99.90;;;;;;5042949;28;20625;-73
2021/01/12 02:33:19;;;;;;;43.17;22.17;;;-1.80;99.90;;;;;;5047580;28;20210;-71
2021/01/12 02:35:48;;;;;;;46.13;24.33;;;-1.80;99.90;;;;;;5046583;28;20707;-73
2021/01/12 02:38:15;;;;;;;47.53;21.90;;;-1.80;99.90;;;;;;5049664;28;20241;-73
2021/01/12 02:40:41;;;;;;;44.93;22.77;;;-1.80;99.90;;;;;;5043081;28;21883;-73
2021/01/12 02:43:09;;;;;;;47.93;23.53;;;-1.70;99.90;;;;;;5053841;28;20206;-73
2021/01/12 02:45:35;;;;;;;46.47;22.83;;;-1.90;99.90;;;;;;5049516;28;20240;-73
2021/01/12 02:48:02;;;;;;;50.50;25.63;;;-1.90;99.90;;;;;;5041588;28;20207;-74
2021/01/12 02:50:28;;;;;;;48.77;22.90;;;-1.80;99.90;;;;;;5042599;28;20206;-71
2021/01/12 02:52:55;;;;;;;40.10;22.00;;;-1.80;99.90;;;;;;5051773;28;20825;-72
2021/01/12 02:55:21;;;;;;;43.27;23.57;;;-1.80;99.90;;;;;;5048438;28;20284;-72
2021/01/12 02:57:47;;;;;;;39.77;21.83;;;-1.80;99.90;;;;;;5053693;28;20607;-73
2021/01/12 03:00:17;;;;;;;41.73;21.50;;;-1.90;99.90;;;;;;5045743;28;20716;-73
2021/01/12 03:02:43;;;;;;;45.50;22.30;;;-1.90;99.90;;;;;;5046874;28;20289;-73
2021/01/12 03:05:11;;;;;;;44.63;22.17;;;-1.80;99.90;;;;;;5047582;28;20241;-72
2021/01/12 03:07:37;;;;;;;41.97;21.23;;;-1.80;99.90;;;;;;5052516;28;20309;-73
2021/01/12 03:10:04;;;;;;;41.77;21.30;;;-1.80;99.90;;;;;;5045476;28;20715;-74
2021/01/12 03:12:31;;;;;;;45.03;22.43;;;-1.80;99.90;;;;;;5043039;28;20226;-72
2021/01/12 03:14:57;;;;;;;44.37;21.67;;;-1.80;99.90;;;;;;5045116;28;20271;-73
2021/01/12 03:17:24;;;;;;;46.43;22.37;;;-1.80;99.90;;;;;;5045748;28;20195;-73
2021/01/12 03:19:51;;;;;;;39.17;20.03;;;-1.80;99.90;;;;;;5051471;28;20580;-73
2021/01/12 03:22:17;;;;;;;44.37;22.47;;;-1.80;99.90;;;;;;5051696;28;20206;-72
2021/01/12 03:24:44;;;;;;;42.60;21.67;;;-1.80;99.90;;;;;;5051009;28;20201;-72
2021/01/12 03:27:10;;;;;;;39.23;21.93;;;-1.80;99.90;;;;;;5049143;28;20272;-72
2021/01/12 03:29:37;;;;;;;40.93;22.03;;;-1.80;99.90;;;;;;5048071;28;20289;-73
2021/01/12 03:32:04;;;;;;;43.17;21.83;;;-1.80;99.90;;;;;;5048684;28;20571;-72
2021/01/12 03:34:31;;;;;;;39.80;20.60;;;-1.80;99.90;;;;;;5046463;28;20685;-72
2021/01/12 03:36:57;;;;;;;44.37;22.33;;;-1.80;99.90;;;;;;5047494;28;20205;-72
2021/01/12 03:39:23;;;;;;;45.17;22.03;;;-1.80;99.90;;;;;;5044922;28;20718;-72
2021/01/12 03:41:50;;;;;;;45.40;21.50;;;-1.70;99.90;;;;;;5051431;28;20202;-72
2021/01/12 03:44:16;;;;;;;38.73;20.03;;;-1.80;99.90;;;;;;5049448;28;20214;-72
2021/01/12 03:46:43;;;;;;;40.77;21.43;;;-1.80;99.90;;;;;;5048977;28;20226;-73
2021/01/12 03:49:09;;;;;;;39.67;20.83;;;-1.80;99.90;;;;;;5046467;28;20336;-73
2021/01/12 03:51:36;;;;;;;43.10;21.83;;;-1.80;99.90;;;;;;5045998;28;20636;-73
2021/01/12 03:54:03;;;;;;;42.73;22.13;;;-1.80;99.90;;;;;;5049330;28;20673;-73
2021/01/12 03:56:29;;;;;;;37.90;19.80;;;-1.80;99.90;;;;;;5042752;28;20289;-73
2021/01/12 03:58:56;;;;;;;44.00;21.23;;;-1.70;99.90;;;;;;5052276;28;20641;-73
2021/01/12 04:01:22;;;;;;;42.70;21.80;;;-1.80;99.90;;;;;;5045482;28;20605;-72
2021/01/12 04:03:48;;;;;;;41.30;21.00;;;-1.80;99.90;;;;;;5046171;28;20226;-73
2021/01/12 04:06:16;;;;;;;41.87;22.07;;;-1.80;99.90;;;;;;5045291;28;20735;-73
2021/01/12 04:08:45;;;;;;;37.27;20.30;;;-1.80;99.90;;;;;;5051278;28;20213;-72
2021/01/12 04:11:12;;;;;;;43.93;22.43;;;-1.80;99.90;;;;;;5048003;28;20210;-72
2021/01/12 04:13:38;;;;;;;43.70;21.90;;;-1.80;99.90;;;;;;5049119;28;20203;-73
2021/01/12 04:16:05;;;;;;;43.23;21.70;;;-1.90;99.90;;;;;;5046831;28;20236;-72
2021/01/12 04:18:32;;;;;;;40.37;22.83;;;-1.90;99.90;;;;;;5045434;28;20226;-72
2021/01/12 04:20:59;;;;;;;46.63;23.37;;;-1.90;99.90;;;;;;5036961;28;20609;-73
2021/01/12 04:23:25;;;;;;;40.77;21.53;;;-1.90;99.90;;;;;;5044211;28;20198;-73
2021/01/12 04:25:53;;;;;;;41.17;20.50;;;-1.80;99.90;;;;;;5051357;28;20198;-73
2021/01/12 04:28:19;;;;;;;41.97;22.03;;;-1.90;99.90;;;;;;5045140;28;20294;-73
2021/01/12 04:30:46;;;;;;;45.13;22.60;;;-1.90;99.90;;;;;;5040704;28;20280;-74
2021/01/12 04:33:13;;;;;;;43.37;22.53;;;-1.90;99.90;;;;;;5049412;28;20545;-73
2021/01/12 04:35:39;;;;;;;44.87;22.23;;;-1.90;99.90;;;;;;5050784;28;20605;-74
2021/01/12 04:38:05;;;;;;;41.43;22.20;;;-1.90;99.90;;;;;;5045151;28;20643;-73
2021/01/12 04:40:32;;;;;;;43.13;20.57;;;-1.90;99.90;;;;;;5045394;28;20210;-74
2021/01/12 04:42:59;;;;;;;46.37;22.47;;;-1.90;99.90;;;;;;5044838;28;20202;-73
2021/01/12 04:45:26;;;;;;;40.77;22.00;;;-1.90;99.90;;;;;;5042138;28;20198;-73
2021/01/12 04:47:53;;;;;;;44.53;20.77;;;-1.90;99.90;;;;;;5047261;28;20636;-73
2021/01/12 04:50:19;;;;;;;40.07;22.27;;;-1.90;99.90;;;;;;5039843;28;20626;-73
2021/01/12 04:52:47;;;;;;;43.07;22.40;;;-1.90;99.90;;;;;;5045757;28;20400;-74
2021/01/12 04:55:14;;;;;;;45.97;22.87;;;-1.90;99.90;;;;;;5047388;28;20216;-74
2021/01/12 04:57:43;;;;;;;48.40;22.70;;;-1.90;99.90;;;;;;5046539;28;20357;-74
2021/01/12 05:00:14;;;;;;;38.43;21.80;;;-1.80;99.90;;;;;;5044363;28;20308;-74
2021/01/12 05:02:40;;;;;;;44.17;21.97;;;-1.80;99.90;;;;;;5042953;28;20649;-74
2021/01/12 05:05:08;;;;;;;45.00;22.40;;;-1.80;99.90;;;;;;5048224;28;20242;-74
2021/01/12 05:07:37;;;;;;;44.10;21.97;;;-1.70;99.90;;;;;;5048057;28;20333;-73
2021/01/12 05:10:10;;;;;;;43.53;22.07;;;-1.70;99.90;;;;;;5041612;28;20217;-73
2021/01/12 05:12:40;;;;;;;38.60;21.10;;;-1.70;99.90;;;;;;5045351;28;20356;-74
2021/01/12 05:15:09;;;;;;;42.30;22.30;;;-1.60;99.90;;;;;;5031641;28;20222;-72
2021/01/12 05:17:37;;;;;;;37.67;22.03;;;-1.60;99.90;;;;;;5046158;28;20234;-72
2021/01/12 05:20:05;;;;;;;47.40;21.53;;;-1.60;99.90;;;;;;5047203;28;20259;-72
2021/01/12 05:22:39;;;;;;;40.23;22.03;;;-1.60;99.90;;;;;;5043501;28;20298;-73
2021/01/12 05:25:19;;;;;;;46.23;22.33;;;-1.60;99.90;;;;;;5044096;28;20238;-72
2021/01/12 05:27:51;;;;;;;40.50;21.57;;;-1.60;99.90;;;;;;5043847;28;20218;-73
2021/01/12 05:30:24;;;;;;;43.70;22.60;;;-1.50;99.90;;;;;;5042628;28;20332;-73
2021/01/12 05:32:53;;;;;;;42.43;21.60;;;-1.60;99.90;;;;;;5044039;28;20205;-72
2021/01/12 05:35:20;;;;;;;41.53;21.07;;;-1.60;99.90;;;;;;5050224;28;20652;-72
2021/01/12 05:37:47;;;;;;;42.03;22.60;;;-1.60;99.90;;;;;;5040867;28;20832;-73
2021/01/12 05:40:14;;;;;;;46.67;23.33;;;-1.60;99.90;;;;;;5046959;28;20631;-73
2021/01/12 05:42:41;;;;;;;46.03;21.50;;;-1.60;99.90;;;;;;5047141;28;20210;-73
2021/01/12 05:45:09;;;;;;;41.53;22.40;;;-1.60;99.90;;;;;;5040425;28;20841;-73
2021/01/12 05:47:35;;;;;;;45.43;23.57;;;-1.60;99.90;;;;;;5043410;28;20628;-73
2021/01/12 05:50:03;;;;;;;43.83;22.57;;;-1.60;99.90;;;;;;5040148;28;20248;-72
2021/01/12 05:52:44;;;;;;;43.43;21.60;;;-1.70;99.90;;;;;;5048544;28;20224;-72
2021/01/12 05:55:15;;;;;;;47.73;22.93;;;-1.60;99.90;;;;;;5042401;28;20503;-72
2021/01/12 05:57:52;;;;;;;40.30;20.80;;;-1.70;99.90;;;;;;5044621;28;20224;-72
2021/01/12 06:00:22;;;;;;;42.60;22.27;;;-1.70;99.90;;;;;;5043534;28;20209;-73
2021/01/12 06:02:54;;;;;;;44.20;23.03;;;-1.60;99.90;;;;;;5046892;28;20652;-73
2021/01/12 06:05:22;;;;;;;45.27;22.00;;;-1.60;99.90;;;;;;5052805;28;20333;-73
2021/01/12 06:07:48;;;;;;;45.43;22.87;;;-1.60;99.90;;;;;;5053358;28;20714;-72
2021/01/12 06:10:18;;;;;;;46.30;23.10;;;-1.70;99.90;;;;;;5045638;28;20660;-74
2021/01/12 06:12:52;;;;;;;47.97;22.90;;;-1.60;99.90;;;;;;5050892;28;20230;-73
2021/01/12 06:15:19;;;;;;;41.83;21.87;;;-1.60;99.90;;;;;;5046477;28;20222;-73
2021/01/12 06:17:45;;;;;;;47.00;23.23;;;-1.60;99.90;;;;;;5044185;28;20283;-72
2021/01/12 06:20:16;;;;;;;45.17;23.63;;;-1.60;99.90;;;;;;5045169;28;20299;-71
2021/01/12 06:22:52;;;;;;;44.73;21.53;;;-1.60;99.90;;;;;;5044395;28;20209;-72
2021/01/12 06:25:19;;;;;;;41.27;21.57;;;-1.70;99.90;;;;;;5050694;28;20217;-72
2021/01/12 06:27:47;;;;;;;46.43;23.17;;;-1.70;99.90;;;;;;5050624;28;20235;-72
2021/01/12 06:30:17;;;;;;;45.47;21.13;;;-1.70;99.90;;;;;;5044331;28;20210;-73
2021/01/12 06:32:46;;;;;;;53.17;22.10;;;-1.70;99.90;;;;;;5044173;28;20291;-71
2021/01/12 06:35:13;;;;;;;41.37;21.57;;;-1.70;99.90;;;;;;5051303;28;20271;-71
2021/01/12 06:37:41;;;;;;;43.93;23.30;;;-1.60;99.90;;;;;;5041697;28;20199;-72
2021/01/12 06:40:10;;;;;;;42.40;22.40;;;-1.60;99.90;;;;;;5043901;28;20220;-73
2021/01/12 06:42:38;;;;;;;44.00;23.00;;;-1.60;99.90;;;;;;5043234;28;20290;-73
2021/01/12 06:45:06;;;;;;;45.90;22.80;;;-1.60;99.90;;;;;;5047222;28;20198;-73
2021/01/12 06:47:33;;;;;;;41.97;21.57;;;-1.60;99.90;;;;;;5044644;28;20222;-72
2021/01/12 06:50:08;;;;;;;41.67;21.53;;;-1.60;99.90;;;;;;5040774;28;20241;-72
2021/01/12 06:52:39;;;;;;;45.97;21.47;;;-1.60;99.90;;;;;;5042293;28;20634;-73
2021/01/12 06:55:10;;;;;;;47.47;23.17;;;-1.60;99.90;;;;;;5038322;28;20216;-73
2021/01/12 06:57:37;;;;;;;47.20;23.80;;;-1.60;99.90;;;;;;5047245;28;20202;-72
2021/01/12 07:00:08;;;;;;;43.23;22.40;;;-1.60;99.90;;;;;;5041133;28;20210;-73
2021/01/12 07:02:35;;;;;;;44.63;23.63;;;-1.50;99.90;;;;;;5040424;28;20328;-73
2021/01/12 07:05:09;;;;;;;47.30;24.00;;;-1.60;99.90;;;;;;5040203;28;20598;-72
2021/01/12 07:07:41;;;;;;;47.13;23.63;;;-1.60;99.90;;;;;;5036961;28;20328;-71
2021/01/12 07:10:09;;;;;;;43.83;22.23;;;-1.50;99.90;;;;;;5037038;28;20689;-72
2021/01/12 07:12:37;;;;;;;46.47;22.40;;;-1.60;99.90;;;;;;5044486;28;20233;-73
2021/01/12 07:15:09;;;;;;;45.70;23.40;;;-1.60;99.90;;;;;;5045532;28;20638;-72
2021/01/12 07:17:42;;;;;;;47.20;23.03;;;-1.60;99.90;;;;;;5042984;28;20202;-72
2021/01/12 07:20:11;;;;;;;43.97;22.57;;;-1.60;99.90;;;;;;5043529;28;20222;-73
2021/01/12 07:22:39;;;;;;;47.57;22.50;;;-1.60;99.90;;;;;;5046212;28;20210;-73
2021/01/12 07:25:08;;;;;;;40.10;20.83;;;-1.50;99.90;;;;;;5043898;28;20217;-71
2021/01/12 07:27:36;;;;;;;44.57;21.93;;;-1.50;99.90;;;;;;5040349;28;20219;-73
2021/01/12 07:30:05;;;;;;;40.93;22.10;;;-1.50;99.90;;;;;;5051634;28;20297;-74
2021/01/12 07:32:34;;;;;;;43.97;21.23;;;-1.50;99.90;;;;;;5047017;28;20216;-72
2021/01/12 07:35:05;;;;;;;46.20;21.43;;;-1.50;99.90;;;;;;5049004;28;20339;-73
2021/01/12 07:37:34;;;;;;;40.50;20.80;;;-1.40;99.90;;;;;;5045277;28;20197;-72
2021/01/12 07:40:01;;;;;;;41.37;22.23;;;-1.40;99.90;;;;;;5038985;28;20297;-73
2021/01/12 07:42:27;;;;;;;45.13;20.30;;;-1.40;99.90;;;;;;5044849;28;20333;-73
2021/01/12 07:44:55;;;;;;;40.80;20.67;;;-1.40;99.90;;;;;;5053862;28;20301;-70
2021/01/12 07:47:22;;;;;;;39.87;20.20;;;-1.40;99.90;;;;;;5043979;28;20317;-72
2021/01/12 07:49:49;;;;;;;38.90;20.37;;;-1.40;99.90;;;;;;5044108;28;20207;-71
2021/01/12 07:52:19;;;;;;;40.90;19.77;;;-1.40;99.90;;;;;;5047461;28;20214;-74
2021/01/12 07:54:46;;;;;;;42.23;20.43;;;-1.40;99.90;;;;;;5045082;28;20556;-73
2021/01/12 07:57:12;;;;;;;42.27;20.37;;;-1.30;99.90;;;;;;5051707;28;20197;-73
2021/01/12 07:59:39;;;;;;;38.97;21.03;;;-1.30;99.90;;;;;;5042435;28;20310;-71
2021/01/12 08:02:07;;;;;;;38.30;20.47;;;-1.20;99.90;;;;;;5046992;28;20308;-72
2021/01/12 08:04:34;;;;;;;36.83;20.27;;;-1.30;99.90;;;;;;5049542;28;20320;-70
2021/01/12 08:07:01;;;;;;;40.10;19.87;;;-1.20;99.90;;;;;;5041761;28;20257;-70
2021/01/12 08:09:27;;;;;;;42.30;20.53;;;-1.20;99.90;;;;;;5044760;28;20210;-70
2021/01/12 08:11:59;;;;;;;44.47;21.03;;;-1.10;99.90;;;;;;5044527;28;20313;-71
2021/01/12 08:14:26;;;;;;;37.33;19.90;;;-1.00;99.90;;;;;;5047746;28;20202;-71
2021/01/12 08:16:54;;;;;;;40.73;19.40;;;-1.00;99.90;;;;;;5043768;28;20289;-71
2021/01/12 08:19:26;;;;;;;39.87;19.97;;;-0.90;99.90;;;;;;5044150;28;21054;-74
2021/01/12 08:21:54;;;;;;;42.20;19.70;;;-0.90;99.90;;;;;;5043519;28;20202;-74
2021/01/12 08:24:22;;;;;;;38.07;18.70;;;-0.80;99.90;;;;;;5049748;28;20205;-73
2021/01/12 08:26:48;;;;;;;38.07;19.37;;;-0.70;99.90;;;;;;5046868;28;20776;-73
2021/01/12 08:29:20;;;;;;;36.37;19.00;;;-0.60;99.90;;;;;;5040243;28;20214;-72
2021/01/12 08:31:50;;;;;;;41.87;19.87;;;-0.60;99.90;;;;;;5053787;28;20213;-71
2021/01/12 08:34:21;;;;;;;34.87;17.07;;;-0.60;99.90;;;;;;5048415;28;20220;-72
2021/01/12 08:36:50;;;;;;;34.50;17.87;;;-0.50;99.90;;;;;;5044304;28;20206;-72
2021/01/12 08:39:17;;;;;;;37.03;18.90;;;-0.40;99.90;;;;;;5048374;28;20216;-71
2021/01/12 08:41:45;;;;;;;34.90;19.10;;;-0.40;99.90;;;;;;5044655;28;20293;-71
2021/01/12 08:44:14;;;;;;;37.53;17.60;;;-0.10;99.90;;;;;;5045328;28;20221;-71
2021/01/12 08:46:41;;;;;;;33.40;17.43;;;-0.20;99.90;;;;;;5039803;28;20239;-73
2021/01/12 08:49:07;;;;;;;32.63;17.77;;;0.00;99.90;;;;;;5036599;28;20210;-71
2021/01/12 08:51:34;;;;;;;29.17;16.43;;;0.00;99.90;;;;;;5041146;28;20207;-71
2021/01/12 08:54:02;;;;;;;29.43;16.40;;;0.20;99.90;;;;;;5036305;28;20210;-72
2021/01/12 08:56:28;;;;;;;30.93;16.50;;;0.40;99.90;;;;;;5040023;28;20213;-73
2021/01/12 08:59:05;;;;;;;32.43;16.57;;;0.60;99.90;;;;;;5038469;28;20672;-75
2021/01/12 09:01:32;;;;;;;31.60;16.17;;;0.70;99.90;;;;;;5042127;28;20263;-73
2021/01/12 09:04:03;;;;;;;33.37;16.57;;;1.10;99.90;;;;;;5041702;28;20711;-73
2021/01/12 09:06:29;;;;;;;29.03;15.23;;;1.60;99.90;;;;;;5040091;28;20237;-73
2021/01/12 09:09:07;;;;;;;27.50;15.47;;;2.00;99.90;;;;;;5045714;28;20249;-73
2021/01/12 09:11:37;;;;;;;27.63;15.37;;;2.20;99.90;;;;;;5035274;28;20718;-74
2021/01/12 09:14:07;;;;;;;26.57;14.57;;;2.20;99.90;;;;;;5038448;28;20207;-75
2021/01/12 09:16:34;;;;;;;26.30;13.77;;;2.10;99.90;;;;;;5042265;28;20202;-74
2021/01/12 09:19:13;;;;;;;26.63;15.13;;;2.10;99.90;;;;;;5040474;28;20207;-73
2021/01/12 09:21:39;;;;;;;26.03;14.30;;;1.90;99.90;;;;;;5042926;28;20206;-74
2021/01/12 09:24:08;;;;;;;28.10;14.53;;;1.80;99.90;;;;;;5049951;28;20245;-72
2021/01/12 09:26:35;;;;;;;26.53;14.20;;;1.70;99.90;;;;;;5044060;28;20212;-72
2021/01/12 09:29:03;;;;;;;22.63;12.83;;;1.60;99.90;;;;;;5043121;28;20214;-73
2021/01/12 09:31:30;;;;;;;22.63;13.20;;;1.60;99.90;;;;;;5039714;28;20233;-70
2021/01/12 09:33:57;;;;;;;21.37;13.33;;;1.60;99.90;;;;;;5043018;28;20321;-70
2021/01/12 09:36:32;;;;;;;25.83;13.43;;;1.60;99.90;;;;;;5044142;28;20251;-72
2021/01/12 09:39:00;;;;;;;25.13;12.97;;;1.80;99.90;;;;;;5041292;28;20550;-70
2021/01/12 09:41:28;;;;;;;23.80;13.17;;;2.00;99.90;;;;;;5044145;28;20552;-72
2021/01/12 09:43:55;;;;;;;21.27;12.67;;;2.70;99.90;;;;;;5041305;28;20210;-70
2021/01/12 09:46:23;;;;;;;22.30;12.33;;;3.60;99.90;;;;;;5036928;28;20206;-71
2021/01/12 09:48:50;;;;;;;21.83;12.07;;;5.10;99.90;;;;;;5039274;28;20206;-71
2021/01/12 09:51:16;;;;;;;18.17;10.50;;;7.10;99.90;;;;;;5042194;28;20260;-72
2021/01/12 09:53:47;;;;;;;20.83;11.40;;;9.10;87.20;;;;;;5047300;28;20549;-71
2021/01/12 09:56:15;;;;;;;22.87;12.03;;;10.50;60.80;;;;;;5040561;28;20233;-70
2021/01/12 09:58:42;;;;;;;21.60;11.87;;;11.30;58.10;;;;;;5042245;28;20209;-72
2021/01/12 10:01:09;;;;;;;17.93;11.57;;;11.80;53.00;;;;;;5037632;28;20297;-73
2021/01/12 10:03:36;;;;;;;18.07;11.50;;;11.90;50.30;;;;;;5038589;28;20207;-74
2021/01/12 10:06:02;;;;;;;20.97;12.47;;;11.30;48.90;;;;;;5042506;28;20301;-73
2021/01/12 10:08:29;;;;;;;19.03;11.40;;;10.40;48.50;;;;;;5050449;28;20328;-74
2021/01/12 10:10:55;;;;;;;21.70;12.67;;;9.40;50.80;;;;;;5042050;28;20277;-71
2021/01/12 10:13:22;;;;;;;23.43;13.03;;;8.40;52.40;;;;;;5034906;28;20220;-74
2021/01/12 10:15:49;;;;;;;23.70;12.97;;;7.40;54.00;;;;;;5036555;28;20198;-75
2021/01/12 10:18:16;;;;;;;23.50;12.27;;;6.80;56.60;;;;;;5032981;28;20270;-74
2021/01/12 10:20:42;;;;;;;21.07;11.73;;;6.30;58.80;;;;;;5044007;28;20298;-73
2021/01/12 10:23:09;;;;;;;19.13;11.53;;;6.30;64.60;;;;;;5032954;28;20610;-73
2021/01/12 10:25:37;;;;;;;18.63;11.87;;;6.40;62.20;;;;;;5033805;28;20704;-74
2021/01/12 10:28:04;;;;;;;19.67;11.63;;;6.50;61.40;;;;;;5033763;28;20229;-74
2021/01/12 10:30:31;;;;;;;19.50;11.67;;;6.40;60.00;;;;;;5035948;28;20240;-73
2021/01/12 10:32:58;;;;;;;19.63;12.10;;;6.10;60.50;;;;;;5032701;28;20207;-73
2021/01/12 10:35:25;;;;;;;20.53;11.93;;;5.90;61.90;;;;;;5032939;28;20305;-74
2021/01/12 10:37:52;;;;;;;19.80;11.40;;;5.60;63.00;;;;;;5037001;28;20580;-73
2021/01/12 10:40:21;;;;;;;20.07;11.57;;;5.60;66.30;;;;;;5033136;28;20245;-74
2021/01/12 10:42:47;;;;;;;20.70;11.90;;;5.80;64.80;;;;;;5032757;28;20265;-74
2021/01/12 10:45:16;;;;;;;17.70;10.33;;;6.00;65.20;;;;;;5033070;28;20237;-74
2021/01/12 10:47:44;;;;;;;18.43;10.10;;;5.90;62.90;;;;;;5042147;28;20231;-74
2021/01/12 10:50:14;;;;;;;16.30;11.00;;;5.60;63.80;;;;;;5049934;28;20237;-73
2021/01/12 10:52:40;;;;;;;17.40;10.90;;;5.30;64.80;;;;;;5038725;28;20294;-74
2021/01/12 10:55:09;;;;;;;20.97;11.60;;;5.10;66.00;;;;;;5032286;28;20238;-73
2021/01/12 10:57:35;;;;;;;17.27;10.40;;;4.80;67.20;;;;;;5032756;28;20198;-74
2021/01/12 11:00:05;;;;;;;18.97;10.87;;;4.60;68.30;;;;;;5028500;28;20622;-74
2021/01/12 11:02:32;;;;;;;17.73;10.90;;;4.50;70.40;;;;;;5024718;28;20238;-73
2021/01/12 11:04:58;;;;;;;18.47;10.90;;;4.80;70.80;;;;;;5035962;28;20803;-72
2021/01/12 11:07:26;;;;;;;17.73;9.87;;;5.20;71.10;;;;;;5035730;28;20222;-73
2021/01/12 11:09:53;;;;;;;17.47;10.83;;;6.00;72.30;;;;;;5035601;28;20215;-72
2021/01/12 11:12:20;;;;;;;21.03;11.90;;;6.40;67.60;;;;;;5033387;28;20317;-71
2021/01/12 11:14:47;;;;;;;20.97;11.60;;;6.50;66.50;;;;;;5035973;28;20198;-71
2021/01/12 11:17:13;;;;;;;19.97;10.40;;;7.10;74.20;;;;;;5029468;28;20206;-71
2021/01/12 11:19:41;;;;;;;20.87;11.70;;;7.90;63.30;;;;;;5047830;28;20224;-72
2021/01/12 11:22:07;;;;;;;20.20;10.97;;;8.30;61.50;;;;;;5036608;28;20648;-72
2021/01/12 11:24:34;;;;;;;16.27;10.40;;;8.10;57.90;;;;;;5035999;28;20301;-70
2021/01/12 11:27:04;;;;;;;20.47;12.03;;;7.70;58.00;;;;;;5034904;28;20226;-71
2021/01/12 11:29:31;;;;;;;17.83;11.17;;;7.10;58.70;;;;;;5043311;28;20217;-73
2021/01/12 11:32:00;;;;;;;18.23;11.20;;;6.50;59.70;;;;;;5042895;28;20230;-72
2021/01/12 11:34:27;;;;;;;25.70;11.87;;;5.90;61.40;;;;;;5047053;28;20614;-71
2021/01/12 11:36:54;;;;;;;22.97;11.63;;;5.40;63.20;;;;;;5041394;28;20643;-72
2021/01/12 11:39:20;;;;;;;20.80;11.73;;;4.90;64.90;;;;;;5046245;28;20268;-73
2021/01/12 11:41:50;;;;;;;19.37;11.80;;;4.50;66.30;;;;;;5035920;28;20211;-71
2021/01/12 11:44:17;;;;;;;20.70;11.23;;;4.10;68.20;;;;;;5035363;28;20211;-71
2021/01/12 11:46:44;;;;;;;24.67;11.07;;;3.80;69.70;;;;;;5036337;28;20206;-72
2021/01/12 11:49:11;;;;;;;23.07;11.80;;;3.50;71.00;;;;;;5042357;28;20373;-71
2021/01/12 11:51:40;;;;;;;22.77;11.50;;;3.30;72.80;;;;;;5033087;28;20229;-69
2021/01/12 11:54:08;;;;;;;24.83;12.07;;;3.10;74.40;;;;;;5033165;28;20207;-71
2021/01/12 11:56:35;;;;;;;17.37;11.17;;;2.90;76.30;;;;;;5033832;28;20238;-70
2021/01/12 11:59:04;;;;;;;22.00;11.33;;;2.80;78.20;;;;;;5035901;28;20286;-71
2021/01/12 12:01:40;;;;;;;20.50;11.20;;;2.60;79.80;;;;;;5032632;28;20215;-71
2021/01/12 12:04:07;;;;;;;22.70;11.23;;;2.60;82.60;;;;;;5045121;28;20280;-69
2021/01/12 12:06:33;;;;;;;22.03;11.50;;;2.50;83.60;;;;;;5035184;28;20300;-71
2021/01/12 12:08:59;;;;;;;18.93;11.37;;;2.50;85.30;;;;;;5034771;28;20203;-72
2021/01/12 12:11:26;;;;;;;20.70;11.57;;;2.50;87.30;;;;;;5034668;28;20236;-72
2021/01/12 12:13:53;;;;;;;19.97;11.87;;;2.30;88.80;;;;;;5037796;28;20203;-71
2021/01/12 12:16:20;;;;;;;25.53;12.00;;;2.30;90.20;;;;;;5035693;28;20253;-71
2021/01/12 12:18:48;;;;;;;22.03;10.60;;;2.30;91.00;;;;;;5036900;28;20682;-70
2021/01/12 12:21:16;;;;;;;20.40;11.03;;;2.30;91.90;;;;;;5035089;28;20290;-71
2021/01/12 12:23:43;;;;;;;18.53;10.63;;;2.30;92.40;;;;;;5034969;28;20293;-73
2021/01/12 12:26:10;;;;;;;19.67;11.13;;;2.30;92.90;;;;;;5034801;28;20297;-72
2021/01/12 12:28:37;;;;;;;20.17;11.33;;;2.20;93.40;;;;;;5034640;28;20364;-73
2021/01/12 12:31:03;;;;;;;20.07;11.60;;;2.20;94.00;;;;;;5035138;28;20540;-73
2021/01/12 12:33:32;;;;;;;24.17;12.90;;;2.10;94.30;;;;;;5034229;28;20314;-73